sensor_id;sensor_type;location;lat;lon;timestamp;P1;durP1;ratioP1;P2;durP2;ratioP2
30583;SDS011;17357;59.404;18.414;2022-11-22T00:02:16;1.65;;;0.88;;
30583;SDS011;17357;59.404;18.414;2022-11-22T00:04:42;1.85;;;0.82;;
30583;SDS011;17357;59.404;18.414;2022-11-22T00:07:07;0.65;;;0.57;;
30583;SDS011;17357;59.404;18.414;2022-11-22T00:09:32;1.25;;;1.08;;
30583;SDS011;17357;59.404;18.414;2022-11-22T00:11:58;0.57;;;0.57;;
30583;SDS011;17357;59.404;18.414;2022-11-22T00:14:23;1.10;;;0.70;;
30583;SDS011;17357;59.404;18.414;2022-11-22T00:16:49;1.13;;;0.80;;
30583;SDS011;17357;59.404;18.414;2022-11-22T00:19:14;0.65;;;0.60;;
30583;SDS011;17357;59.404;18.414;2022-11-22T00:21:40;1.92;;;0.80;;
30583;SDS011;17357;59.404;18.414;2022-11-22T00:24:05;1.33;;;0.68;;
30583;SDS011;17357;59.404;18.414;2022-11-22T00:26:30;0.75;;;0.70;;
30583;SDS011;17357;59.404;18.414;2022-11-22T00:28:56;0.90;;;0.60;;
30583;SDS011;17357;59.404;18.414;2022-11-22T00:31:21;0.73;;;0.60;;
30583;SDS011;17357;59.404;18.414;2022-11-22T00:33:47;1.25;;;0.80;;
30583;SDS011;17357;59.404;18.414;2022-11-22T00:36:12;0.85;;;0.63;;
30583;SDS011;17357;59.404;18.414;2022-11-22T00:38:38;1.30;;;0.70;;
30583;SDS011;17357;59.404;18.414;2022-11-22T00:41:03;2.03;;;0.80;;
30583;SDS011;17357;59.404;18.414;2022-11-22T00:43:29;0.90;;;0.45;;
30583;SDS011;17357;59.404;18.414;2022-11-22T00:45:54;2.80;;;0.88;;
30583;SDS011;17357;59.404;18.414;2022-11-22T00:48:19;1.85;;;0.82;;
30583;SDS011;17357;59.404;18.414;2022-11-22T00:50:47;0.70;;;0.68;;
30583;SDS011;17357;59.404;18.414;2022-11-22T00:53:14;1.65;;;0.70;;
30583;SDS011;17357;59.404;18.414;2022-11-22T00:55:39;1.05;;;0.63;;
30583;SDS011;17357;59.404;18.414;2022-11-22T00:58:05;1.00;;;0.60;;
30583;SDS011;17357;59.404;18.414;2022-11-22T01:00:30;1.33;;;0.88;;
30583;SDS011;17357;59.404;18.414;2022-11-22T01:02:55;1.13;;;0.80;;
30583;SDS011;17357;59.404;18.414;2022-11-22T01:05:21;1.50;;;0.70;;
30583;SDS011;17357;59.404;18.414;2022-11-22T01:07:46;0.60;;;0.55;;
30583;SDS011;17357;59.404;18.414;2022-11-22T01:10:11;1.50;;;0.70;;
30583;SDS011;17357;59.404;18.414;2022-11-22T01:12:37;2.47;;;0.80;;
30583;SDS011;17357;59.404;18.414;2022-11-22T01:15:03;2.30;;;1.17;;
30583;SDS011;17357;59.404;18.414;2022-11-22T01:17:29;0.85;;;0.80;;
30583;SDS011;17357;59.404;18.414;2022-11-22T01:19:54;0.95;;;0.73;;
30583;SDS011;17357;59.404;18.414;2022-11-22T01:22:19;0.93;;;0.70;;
30583;SDS011;17357;59.404;18.414;2022-11-22T01:24:45;1.15;;;0.60;;
30583;SDS011;17357;59.404;18.414;2022-11-22T01:27:10;0.93;;;0.63;;
30583;SDS011;17357;59.404;18.414;2022-11-22T01:29:35;2.25;;;1.08;;
30583;SDS011;17357;59.404;18.414;2022-11-22T01:32:01;1.05;;;0.65;;
30583;SDS011;17357;59.404;18.414;2022-11-22T01:34:27;2.38;;;1.02;;
30583;SDS011;17357;59.404;18.414;2022-11-22T01:36:52;1.40;;;0.93;;
30583;SDS011;17357;59.404;18.414;2022-11-22T01:39:17;0.82;;;0.70;;
30583;SDS011;17357;59.404;18.414;2022-11-22T01:41:43;1.35;;;0.80;;
30583;SDS011;17357;59.404;18.414;2022-11-22T01:46:42;1.55;;;0.70;;
30583;SDS011;17357;59.404;18.414;2022-11-22T01:49:13;1.30;;;0.70;;
30583;SDS011;17357;59.404;18.414;2022-11-22T01:51:48;0.75;;;0.75;;
30583;SDS011;17357;59.404;18.414;2022-11-22T01:54:18;1.00;;;0.70;;
30583;SDS011;17357;59.404;18.414;2022-11-22T01:56:49;2.17;;;1.20;;
30583;SDS011;17357;59.404;18.414;2022-11-22T01:59:21;1.20;;;0.80;;
30583;SDS011;17357;59.404;18.414;2022-11-22T02:01:50;1.27;;;0.70;;
30583;SDS011;17357;59.404;18.414;2022-11-22T02:04:17;0.95;;;0.60;;
30583;SDS011;17357;59.404;18.414;2022-11-22T02:09:21;3.20;;;1.20;;
30583;SDS011;17357;59.404;18.414;2022-11-22T02:11:50;1.05;;;0.95;;
30583;SDS011;17357;59.404;18.414;2022-11-22T02:14:21;0.88;;;0.47;;
30583;SDS011;17357;59.404;18.414;2022-11-22T02:16:49;1.23;;;0.90;;
30583;SDS011;17357;59.404;18.414;2022-11-22T02:19:17;1.27;;;0.70;;
30583;SDS011;17357;59.404;18.414;2022-11-22T02:21:57;3.28;;;0.70;;
30583;SDS011;17357;59.404;18.414;2022-11-22T02:24:30;1.02;;;0.77;;
30583;SDS011;17357;59.404;18.414;2022-11-22T02:27:03;1.00;;;0.70;;
30583;SDS011;17357;59.404;18.414;2022-11-22T02:29:29;0.90;;;0.70;;
30583;SDS011;17357;59.404;18.414;2022-11-22T02:31:55;0.77;;;0.70;;
30583;SDS011;17357;59.404;18.414;2022-11-22T02:34:20;1.40;;;0.68;;
30583;SDS011;17357;59.404;18.414;2022-11-22T02:36:47;0.93;;;0.70;;
30583;SDS011;17357;59.404;18.414;2022-11-22T02:39:16;1.15;;;0.95;;
30583;SDS011;17357;59.404;18.414;2022-11-22T02:41:44;0.93;;;0.50;;
30583;SDS011;17357;59.404;18.414;2022-11-22T02:44:10;1.00;;;0.60;;
30583;SDS011;17357;59.404;18.414;2022-11-22T02:46:47;1.55;;;0.57;;
30583;SDS011;17357;59.404;18.414;2022-11-22T02:49:15;1.42;;;0.77;;
30583;SDS011;17357;59.404;18.414;2022-11-22T02:51:41;2.20;;;0.52;;
30583;SDS011;17357;59.404;18.414;2022-11-22T02:54:06;1.10;;;0.60;;
30583;SDS011;17357;59.404;18.414;2022-11-22T02:56:32;4.30;;;0.80;;
30583;SDS011;17357;59.404;18.414;2022-11-22T02:58:57;1.83;;;0.65;;
30583;SDS011;17357;59.404;18.414;2022-11-22T03:01:22;0.82;;;0.52;;
30583;SDS011;17357;59.404;18.414;2022-11-22T03:03:48;0.63;;;0.45;;
30583;SDS011;17357;59.404;18.414;2022-11-22T03:06:13;1.98;;;0.60;;
30583;SDS011;17357;59.404;18.414;2022-11-22T03:08:39;0.47;;;0.47;;
30583;SDS011;17357;59.404;18.414;2022-11-22T03:11:04;1.08;;;0.70;;
30583;SDS011;17357;59.404;18.414;2022-11-22T03:13:29;3.20;;;0.70;;
30583;SDS011;17357;59.404;18.414;2022-11-22T03:15:55;0.93;;;0.70;;
30583;SDS011;17357;59.404;18.414;2022-11-22T03:18:20;0.90;;;0.60;;
30583;SDS011;17357;59.404;18.414;2022-11-22T03:20:46;1.23;;;0.77;;
30583;SDS011;17357;59.404;18.414;2022-11-22T03:23:11;0.65;;;0.60;;
30583;SDS011;17357;59.404;18.414;2022-11-22T03:25:37;2.47;;;0.90;;
30583;SDS011;17357;59.404;18.414;2022-11-22T03:28:03;0.98;;;0.50;;
30583;SDS011;17357;59.404;18.414;2022-11-22T03:30:28;1.80;;;0.77;;
30583;SDS011;17357;59.404;18.414;2022-11-22T03:32:54;1.13;;;0.50;;
30583;SDS011;17357;59.404;18.414;2022-11-22T03:35:19;0.90;;;0.50;;
30583;SDS011;17357;59.404;18.414;2022-11-22T03:37:45;0.40;;;0.40;;
30583;SDS011;17357;59.404;18.414;2022-11-22T03:40:10;2.85;;;0.60;;
30583;SDS011;17357;59.404;18.414;2022-11-22T03:42:36;0.40;;;0.40;;
30583;SDS011;17357;59.404;18.414;2022-11-22T03:45:01;1.88;;;0.80;;
30583;SDS011;17357;59.404;18.414;2022-11-22T03:47:27;2.50;;;0.50;;
30583;SDS011;17357;59.404;18.414;2022-11-22T03:49:52;2.08;;;0.60;;
30583;SDS011;17357;59.404;18.414;2022-11-22T03:52:17;1.13;;;0.60;;
30583;SDS011;17357;59.404;18.414;2022-11-22T03:54:43;0.70;;;0.52;;
30583;SDS011;17357;59.404;18.414;2022-11-22T03:57:08;2.42;;;0.60;;
30583;SDS011;17357;59.404;18.414;2022-11-22T03:59:33;1.17;;;0.50;;
30583;SDS011;17357;59.404;18.414;2022-11-22T04:01:59;0.63;;;0.50;;
30583;SDS011;17357;59.404;18.414;2022-11-22T04:04:24;1.20;;;0.65;;
30583;SDS011;17357;59.404;18.414;2022-11-22T04:06:49;1.10;;;0.60;;
30583;SDS011;17357;59.404;18.414;2022-11-22T04:09:15;1.17;;;0.50;;
30583;SDS011;17357;59.404;18.414;2022-11-22T04:11:40;0.77;;;0.50;;
30583;SDS011;17357;59.404;18.414;2022-11-22T04:14:05;1.38;;;0.60;;
30583;SDS011;17357;59.404;18.414;2022-11-22T04:16:49;0.90;;;0.68;;
30583;SDS011;17357;59.404;18.414;2022-11-22T04:19:15;1.42;;;0.50;;
30583;SDS011;17357;59.404;18.414;2022-11-22T04:21:40;0.80;;;0.60;;
30583;SDS011;17357;59.404;18.414;2022-11-22T04:24:09;0.77;;;0.40;;
30583;SDS011;17357;59.404;18.414;2022-11-22T04:26:54;0.80;;;0.45;;
30583;SDS011;17357;59.404;18.414;2022-11-22T04:29:20;0.45;;;0.45;;
30583;SDS011;17357;59.404;18.414;2022-11-22T04:31:47;0.73;;;0.45;;
30583;SDS011;17357;59.404;18.414;2022-11-22T04:34:32;0.75;;;0.60;;
30583;SDS011;17357;59.404;18.414;2022-11-22T04:36:57;1.40;;;0.40;;
30583;SDS011;17357;59.404;18.414;2022-11-22T04:39:23;0.80;;;0.50;;
30583;SDS011;17357;59.404;18.414;2022-11-22T04:41:52;1.85;;;0.40;;
30583;SDS011;17357;59.404;18.414;2022-11-22T04:44:36;0.57;;;0.40;;
30583;SDS011;17357;59.404;18.414;2022-11-22T04:47:05;1.30;;;0.50;;
30583;SDS011;17357;59.404;18.414;2022-11-22T04:49:34;0.52;;;0.43;;
30583;SDS011;17357;59.404;18.414;2022-11-22T04:51:59;0.57;;;0.40;;
30583;SDS011;17357;59.404;18.414;2022-11-22T04:54:43;0.65;;;0.55;;
30583;SDS011;17357;59.404;18.414;2022-11-22T04:57:09;0.30;;;0.30;;
30583;SDS011;17357;59.404;18.414;2022-11-22T04:59:34;0.65;;;0.30;;
30583;SDS011;17357;59.404;18.414;2022-11-22T05:01:59;1.08;;;0.50;;
30583;SDS011;17357;59.404;18.414;2022-11-22T05:04:25;0.60;;;0.38;;
30583;SDS011;17357;59.404;18.414;2022-11-22T05:06:50;0.43;;;0.30;;
30583;SDS011;17357;59.404;18.414;2022-11-22T05:09:16;0.30;;;0.25;;
30583;SDS011;17357;59.404;18.414;2022-11-22T05:11:41;1.40;;;0.50;;
30583;SDS011;17357;59.404;18.414;2022-11-22T05:14:07;0.55;;;0.47;;
30583;SDS011;17357;59.404;18.414;2022-11-22T05:16:33;0.60;;;0.45;;
30583;SDS011;17357;59.404;18.414;2022-11-22T05:18:59;1.95;;;0.52;;
30583;SDS011;17357;59.404;18.414;2022-11-22T05:21:25;1.75;;;0.38;;
30583;SDS011;17357;59.404;18.414;2022-11-22T05:23:52;0.22;;;0.22;;
30583;SDS011;17357;59.404;18.414;2022-11-22T05:26:21;0.30;;;0.30;;
30583;SDS011;17357;59.404;18.414;2022-11-22T05:28:47;0.38;;;0.35;;
30583;SDS011;17357;59.404;18.414;2022-11-22T05:31:17;1.27;;;0.35;;
30583;SDS011;17357;59.404;18.414;2022-11-22T05:33:48;0.45;;;0.30;;
30583;SDS011;17357;59.404;18.414;2022-11-22T05:36:15;0.30;;;0.20;;
30583;SDS011;17357;59.404;18.414;2022-11-22T05:38:41;0.50;;;0.40;;
30583;SDS011;17357;59.404;18.414;2022-11-22T05:41:07;0.28;;;0.20;;
30583;SDS011;17357;59.404;18.414;2022-11-22T05:43:34;0.63;;;0.32;;
30583;SDS011;17357;59.404;18.414;2022-11-22T05:46:07;0.80;;;0.32;;
30583;SDS011;17357;59.404;18.414;2022-11-22T05:48:34;0.43;;;0.20;;
30583;SDS011;17357;59.404;18.414;2022-11-22T05:51:07;0.40;;;0.25;;
30583;SDS011;17357;59.404;18.414;2022-11-22T05:53:34;0.50;;;0.32;;
30583;SDS011;17357;59.404;18.414;2022-11-22T05:56:11;0.50;;;0.30;;
30583;SDS011;17357;59.404;18.414;2022-11-22T05:58:36;0.55;;;0.30;;
30583;SDS011;17357;59.404;18.414;2022-11-22T06:01:06;1.15;;;0.40;;
30583;SDS011;17357;59.404;18.414;2022-11-22T06:03:41;1.17;;;0.30;;
30583;SDS011;17357;59.404;18.414;2022-11-22T06:06:07;1.55;;;0.30;;
30583;SDS011;17357;59.404;18.414;2022-11-22T06:08:34;0.57;;;0.30;;
30583;SDS011;17357;59.404;18.414;2022-11-22T06:11:05;0.32;;;0.30;;
30583;SDS011;17357;59.404;18.414;2022-11-22T06:13:38;0.47;;;0.30;;
30583;SDS011;17357;59.404;18.414;2022-11-22T06:16:05;0.68;;;0.40;;
30583;SDS011;17357;59.404;18.414;2022-11-22T06:18:32;0.65;;;0.30;;
30583;SDS011;17357;59.404;18.414;2022-11-22T06:20:59;0.60;;;0.40;;
30583;SDS011;17357;59.404;18.414;2022-11-22T06:23:26;0.43;;;0.32;;
30583;SDS011;17357;59.404;18.414;2022-11-22T06:25:55;0.47;;;0.30;;
30583;SDS011;17357;59.404;18.414;2022-11-22T06:28:23;0.73;;;0.40;;
30583;SDS011;17357;59.404;18.414;2022-11-22T06:30:48;0.77;;;0.40;;
30583;SDS011;17357;59.404;18.414;2022-11-22T06:33:14;0.82;;;0.20;;
30583;SDS011;17357;59.404;18.414;2022-11-22T06:35:39;0.30;;;0.30;;
30583;SDS011;17357;59.404;18.414;2022-11-22T06:38:04;0.30;;;0.15;;
30583;SDS011;17357;59.404;18.414;2022-11-22T06:40:30;1.25;;;0.50;;
30583;SDS011;17357;59.404;18.414;2022-11-22T06:42:55;0.30;;;0.30;;
30583;SDS011;17357;59.404;18.414;2022-11-22T06:45:21;1.73;;;0.47;;
30583;SDS011;17357;59.404;18.414;2022-11-22T06:47:46;2.05;;;0.50;;
30583;SDS011;17357;59.404;18.414;2022-11-22T06:50:12;0.52;;;0.35;;
30583;SDS011;17357;59.404;18.414;2022-11-22T06:52:37;0.60;;;0.47;;
30583;SDS011;17357;59.404;18.414;2022-11-22T06:55:02;0.70;;;0.30;;
30583;SDS011;17357;59.404;18.414;2022-11-22T06:57:28;0.25;;;0.20;;
30583;SDS011;17357;59.404;18.414;2022-11-22T06:59:53;0.95;;;0.30;;
30583;SDS011;17357;59.404;18.414;2022-11-22T07:02:19;2.03;;;0.32;;
30583;SDS011;17357;59.404;18.414;2022-11-22T07:04:45;0.30;;;0.20;;
30583;SDS011;17357;59.404;18.414;2022-11-22T07:07:10;1.83;;;0.38;;
30583;SDS011;17357;59.404;18.414;2022-11-22T07:09:35;0.32;;;0.30;;
30583;SDS011;17357;59.404;18.414;2022-11-22T07:12:02;1.90;;;0.60;;
30583;SDS011;17357;59.404;18.414;2022-11-22T07:14:28;0.50;;;0.50;;
30583;SDS011;17357;59.404;18.414;2022-11-22T07:16:54;1.67;;;0.60;;
30583;SDS011;17357;59.404;18.414;2022-11-22T07:19:20;0.82;;;0.40;;
30583;SDS011;17357;59.404;18.414;2022-11-22T07:21:45;1.80;;;0.20;;
30583;SDS011;17357;59.404;18.414;2022-11-22T07:24:10;0.38;;;0.20;;
30583;SDS011;17357;59.404;18.414;2022-11-22T07:26:36;0.40;;;0.40;;
30583;SDS011;17357;59.404;18.414;2022-11-22T07:29:02;0.75;;;0.30;;
30583;SDS011;17357;59.404;18.414;2022-11-22T07:31:28;1.65;;;0.28;;
30583;SDS011;17357;59.404;18.414;2022-11-22T07:33:54;2.35;;;0.40;;
30583;SDS011;17357;59.404;18.414;2022-11-22T07:36:21;0.50;;;0.30;;
30583;SDS011;17357;59.404;18.414;2022-11-22T07:38:47;0.65;;;0.20;;
30583;SDS011;17357;59.404;18.414;2022-11-22T07:41:13;1.25;;;0.35;;
30583;SDS011;17357;59.404;18.414;2022-11-22T07:43:39;0.70;;;0.40;;
30583;SDS011;17357;59.404;18.414;2022-11-22T07:46:06;1.58;;;0.40;;
30583;SDS011;17357;59.404;18.414;2022-11-22T07:48:44;0.45;;;0.20;;
30583;SDS011;17357;59.404;18.414;2022-11-22T07:51:09;0.98;;;0.30;;
30583;SDS011;17357;59.404;18.414;2022-11-22T07:53:35;0.80;;;0.38;;
30583;SDS011;17357;59.404;18.414;2022-11-22T07:56:03;0.70;;;0.20;;
30583;SDS011;17357;59.404;18.414;2022-11-22T07:58:29;0.22;;;0.22;;
30583;SDS011;17357;59.404;18.414;2022-11-22T08:00:55;0.38;;;0.20;;
30583;SDS011;17357;59.404;18.414;2022-11-22T08:03:20;1.30;;;0.30;;
30583;SDS011;17357;59.404;18.414;2022-11-22T08:05:46;0.82;;;0.40;;
30583;SDS011;17357;59.404;18.414;2022-11-22T08:08:11;1.35;;;0.40;;
30583;SDS011;17357;59.404;18.414;2022-11-22T08:10:36;0.68;;;0.30;;
30583;SDS011;17357;59.404;18.414;2022-11-22T08:13:02;0.55;;;0.30;;
30583;SDS011;17357;59.404;18.414;2022-11-22T08:15:27;1.08;;;0.25;;
30583;SDS011;17357;59.404;18.414;2022-11-22T08:17:52;0.40;;;0.20;;
30583;SDS011;17357;59.404;18.414;2022-11-22T08:20:18;0.75;;;0.32;;
30583;SDS011;17357;59.404;18.414;2022-11-22T08:22:43;2.92;;;0.30;;
30583;SDS011;17357;59.404;18.414;2022-11-22T08:25:08;1.65;;;0.30;;
30583;SDS011;17357;59.404;18.414;2022-11-22T08:27:39;2.72;;;0.47;;
30583;SDS011;17357;59.404;18.414;2022-11-22T08:30:06;0.82;;;0.30;;
30583;SDS011;17357;59.404;18.414;2022-11-22T08:32:32;0.55;;;0.40;;
30583;SDS011;17357;59.404;18.414;2022-11-22T08:34:58;0.82;;;0.30;;
30583;SDS011;17357;59.404;18.414;2022-11-22T08:37:23;0.70;;;0.45;;
30583;SDS011;17357;59.404;18.414;2022-11-22T08:39:48;0.30;;;0.30;;
30583;SDS011;17357;59.404;18.414;2022-11-22T08:42:14;0.47;;;0.22;;
30583;SDS011;17357;59.404;18.414;2022-11-22T08:44:39;0.57;;;0.20;;
30583;SDS011;17357;59.404;18.414;2022-11-22T08:47:05;1.67;;;0.40;;
30583;SDS011;17357;59.404;18.414;2022-11-22T08:49:30;0.52;;;0.40;;
30583;SDS011;17357;59.404;18.414;2022-11-22T08:51:55;0.93;;;0.38;;
30583;SDS011;17357;59.404;18.414;2022-11-22T08:54:21;0.52;;;0.25;;
30583;SDS011;17357;59.404;18.414;2022-11-22T08:56:46;0.75;;;0.40;;
30583;SDS011;17357;59.404;18.414;2022-11-22T08:59:11;1.45;;;0.40;;
30583;SDS011;17357;59.404;18.414;2022-11-22T09:01:37;1.45;;;0.32;;
30583;SDS011;17357;59.404;18.414;2022-11-22T09:04:02;1.15;;;0.30;;
30583;SDS011;17357;59.404;18.414;2022-11-22T09:06:27;1.02;;;0.35;;
30583;SDS011;17357;59.404;18.414;2022-11-22T09:08:53;1.13;;;0.38;;
30583;SDS011;17357;59.404;18.414;2022-11-22T09:11:18;0.55;;;0.30;;
30583;SDS011;17357;59.404;18.414;2022-11-22T09:13:44;0.40;;;0.32;;
30583;SDS011;17357;59.404;18.414;2022-11-22T09:16:11;0.43;;;0.20;;
30583;SDS011;17357;59.404;18.414;2022-11-22T09:18:38;2.25;;;0.50;;
30583;SDS011;17357;59.404;18.414;2022-11-22T09:21:05;0.40;;;0.28;;
30583;SDS011;17357;59.404;18.414;2022-11-22T09:23:32;0.85;;;0.22;;
30583;SDS011;17357;59.404;18.414;2022-11-22T09:26:19;1.55;;;0.40;;
30583;SDS011;17357;59.404;18.414;2022-11-22T09:28:46;0.28;;;0.25;;
30583;SDS011;17357;59.404;18.414;2022-11-22T09:31:13;0.57;;;0.30;;
30583;SDS011;17357;59.404;18.414;2022-11-22T09:33:41;2.25;;;0.40;;
30583;SDS011;17357;59.404;18.414;2022-11-22T09:36:10;0.80;;;0.30;;
30583;SDS011;17357;59.404;18.414;2022-11-22T09:38:38;0.73;;;0.30;;
30583;SDS011;17357;59.404;18.414;2022-11-22T09:51:41;0.68;;;0.30;;
30583;SDS011;17357;59.404;18.414;2022-11-22T10:00:03;0.20;;;0.20;;
30583;SDS011;17357;59.404;18.414;2022-11-22T10:02:35;0.52;;;0.30;;
30583;SDS011;17357;59.404;18.414;2022-11-22T10:05:12;0.43;;;0.32;;
30583;SDS011;17357;59.404;18.414;2022-11-22T10:07:45;1.23;;;0.30;;
30583;SDS011;17357;59.404;18.414;2022-11-22T10:10:21;2.35;;;0.40;;
30583;SDS011;17357;59.404;18.414;2022-11-22T10:13:01;0.88;;;0.40;;
30583;SDS011;17357;59.404;18.414;2022-11-22T10:15:53;0.98;;;0.30;;
30583;SDS011;17357;59.404;18.414;2022-11-22T10:18:33;0.70;;;0.30;;
30583;SDS011;17357;59.404;18.414;2022-11-22T10:21:04;1.55;;;0.63;;
30583;SDS011;17357;59.404;18.414;2022-11-22T10:23:37;1.08;;;0.35;;
30583;SDS011;17357;59.404;18.414;2022-11-22T10:26:10;0.57;;;0.30;;
30583;SDS011;17357;59.404;18.414;2022-11-22T10:31:33;0.98;;;0.30;;
30583;SDS011;17357;59.404;18.414;2022-11-22T10:36:37;0.45;;;0.22;;
30583;SDS011;17357;59.404;18.414;2022-11-22T10:39:22;0.55;;;0.20;;
30583;SDS011;17357;59.404;18.414;2022-11-22T10:41:59;1.00;;;0.50;;
30583;SDS011;17357;59.404;18.414;2022-11-22T10:47:32;1.42;;;0.40;;
30583;SDS011;17357;59.404;18.414;2022-11-22T10:55:20;0.30;;;0.20;;
30583;SDS011;17357;59.404;18.414;2022-11-22T10:58:14;2.60;;;0.45;;
30583;SDS011;17357;59.404;18.414;2022-11-22T11:00:48;0.98;;;0.40;;
30583;SDS011;17357;59.404;18.414;2022-11-22T11:08:33;1.08;;;0.25;;
30583;SDS011;17357;59.404;18.414;2022-11-22T11:11:00;0.75;;;0.43;;
30583;SDS011;17357;59.404;18.414;2022-11-22T11:14:01;0.65;;;0.30;;
30583;SDS011;17357;59.404;18.414;2022-11-22T11:16:21;0.50;;;0.35;;
30583;SDS011;17357;59.404;18.414;2022-11-22T11:18:56;0.98;;;0.32;;
30583;SDS011;17357;59.404;18.414;2022-11-22T11:21:30;1.40;;;0.35;;
30583;SDS011;17357;59.404;18.414;2022-11-22T11:23:55;1.48;;;0.50;;
30583;SDS011;17357;59.404;18.414;2022-11-22T11:26:23;1.67;;;0.22;;
30583;SDS011;17357;59.404;18.414;2022-11-22T11:29:11;1.40;;;0.28;;
30583;SDS011;17357;59.404;18.414;2022-11-22T11:31:43;0.30;;;0.30;;
30583;SDS011;17357;59.404;18.414;2022-11-22T11:34:27;0.85;;;0.30;;
30583;SDS011;17357;59.404;18.414;2022-11-22T11:36:55;0.22;;;0.20;;
30583;SDS011;17357;59.404;18.414;2022-11-22T11:39:22;1.48;;;0.63;;
30583;SDS011;17357;59.404;18.414;2022-11-22T11:41:52;1.48;;;0.60;;
30583;SDS011;17357;59.404;18.414;2022-11-22T11:44:34;0.82;;;0.47;;
30583;SDS011;17357;59.404;18.414;2022-11-22T11:47:02;2.58;;;0.55;;
30583;SDS011;17357;59.404;18.414;2022-11-22T11:49:28;1.13;;;0.40;;
30583;SDS011;17357;59.404;18.414;2022-11-22T11:52:06;1.15;;;0.50;;
30583;SDS011;17357;59.404;18.414;2022-11-22T11:54:44;0.50;;;0.38;;
30583;SDS011;17357;59.404;18.414;2022-11-22T11:57:18;0.90;;;0.50;;
30583;SDS011;17357;59.404;18.414;2022-11-22T11:59:49;0.38;;;0.30;;
30583;SDS011;17357;59.404;18.414;2022-11-22T12:02:18;0.47;;;0.30;;
30583;SDS011;17357;59.404;18.414;2022-11-22T12:07:44;0.25;;;0.20;;
30583;SDS011;17357;59.404;18.414;2022-11-22T12:13:23;0.40;;;0.30;;
30583;SDS011;17357;59.404;18.414;2022-11-22T12:16:07;0.98;;;0.32;;
30583;SDS011;17357;59.404;18.414;2022-11-22T12:18:40;2.03;;;0.30;;
30583;SDS011;17357;59.404;18.414;2022-11-22T12:21:28;0.20;;;0.20;;
30583;SDS011;17357;59.404;18.414;2022-11-22T12:24:13;0.63;;;0.28;;
30583;SDS011;17357;59.404;18.414;2022-11-22T12:26:58;0.22;;;0.22;;
30583;SDS011;17357;59.404;18.414;2022-11-22T12:29:23;0.63;;;0.30;;
30583;SDS011;17357;59.404;18.414;2022-11-22T12:31:57;0.95;;;0.35;;
30583;SDS011;17357;59.404;18.414;2022-11-22T12:34:29;2.13;;;0.30;;
30583;SDS011;17357;59.404;18.414;2022-11-22T12:39:42;1.30;;;0.20;;
30583;SDS011;17357;59.404;18.414;2022-11-22T12:42:17;0.65;;;0.20;;
30583;SDS011;17357;59.404;18.414;2022-11-22T12:44:49;2.88;;;0.50;;
30583;SDS011;17357;59.404;18.414;2022-11-22T12:47:23;1.00;;;0.40;;
30583;SDS011;17357;59.404;18.414;2022-11-22T12:49:51;0.38;;;0.28;;
30583;SDS011;17357;59.404;18.414;2022-11-22T12:57:53;0.60;;;0.30;;
30583;SDS011;17357;59.404;18.414;2022-11-22T13:00:23;0.85;;;0.55;;
30583;SDS011;17357;59.404;18.414;2022-11-22T13:05:19;0.55;;;0.30;;
30583;SDS011;17357;59.404;18.414;2022-11-22T13:07:54;0.45;;;0.22;;
30583;SDS011;17357;59.404;18.414;2022-11-22T13:10:35;0.63;;;0.17;;
30583;SDS011;17357;59.404;18.414;2022-11-22T13:13:04;1.33;;;0.38;;
30583;SDS011;17357;59.404;18.414;2022-11-22T13:15:41;0.52;;;0.40;;
30583;SDS011;17357;59.404;18.414;2022-11-22T13:18:11;0.40;;;0.20;;
30583;SDS011;17357;59.404;18.414;2022-11-22T13:20:41;0.68;;;0.30;;
30583;SDS011;17357;59.404;18.414;2022-11-22T13:25:55;1.08;;;0.40;;
30583;SDS011;17357;59.404;18.414;2022-11-22T13:28:35;0.50;;;0.30;;
30583;SDS011;17357;59.404;18.414;2022-11-22T13:33:36;0.57;;;0.40;;
30583;SDS011;17357;59.404;18.414;2022-11-22T13:38:51;0.80;;;0.40;;
30583;SDS011;17357;59.404;18.414;2022-11-22T13:41:29;1.25;;;0.40;;
30583;SDS011;17357;59.404;18.414;2022-11-22T13:46:59;0.82;;;0.30;;
30583;SDS011;17357;59.404;18.414;2022-11-22T13:49:32;1.38;;;0.20;;
30583;SDS011;17357;59.404;18.414;2022-11-22T13:52:00;0.20;;;0.20;;
30583;SDS011;17357;59.404;18.414;2022-11-22T13:56:58;0.55;;;0.20;;
30583;SDS011;17357;59.404;18.414;2022-11-22T13:59:25;0.40;;;0.20;;
30583;SDS011;17357;59.404;18.414;2022-11-22T14:07:03;2.60;;;0.40;;
30583;SDS011;17357;59.404;18.414;2022-11-22T14:09:39;1.88;;;0.60;;
30583;SDS011;17357;59.404;18.414;2022-11-22T14:18:11;0.70;;;0.40;;
30583;SDS011;17357;59.404;18.414;2022-11-22T14:20:48;3.92;;;0.50;;
30583;SDS011;17357;59.404;18.414;2022-11-22T14:32:26;0.60;;;0.30;;
30583;SDS011;17357;59.404;18.414;2022-11-22T14:47:38;0.30;;;0.20;;
30583;SDS011;17357;59.404;18.414;2022-11-22T14:50:12;0.32;;;0.20;;
30583;SDS011;17357;59.404;18.414;2022-11-22T14:52:46;1.33;;;0.30;;
30583;SDS011;17357;59.404;18.414;2022-11-22T14:55:20;0.75;;;0.30;;
30583;SDS011;17357;59.404;18.414;2022-11-22T14:58:01;1.10;;;0.38;;
30583;SDS011;17357;59.404;18.414;2022-11-22T15:06:30;0.50;;;0.30;;
30583;SDS011;17357;59.404;18.414;2022-11-22T15:09:22;0.70;;;0.35;;
30583;SDS011;17357;59.404;18.414;2022-11-22T15:17:40;1.08;;;0.35;;
30583;SDS011;17357;59.404;18.414;2022-11-22T15:23:03;5.05;;;0.75;;
30583;SDS011;17357;59.404;18.414;2022-11-22T15:25:44;3.00;;;0.50;;
30583;SDS011;17357;59.404;18.414;2022-11-22T15:28:13;2.42;;;0.50;;
30583;SDS011;17357;59.404;18.414;2022-11-22T15:30:43;0.85;;;0.30;;
30583;SDS011;17357;59.404;18.414;2022-11-22T15:35:46;1.50;;;0.30;;
30583;SDS011;17357;59.404;18.414;2022-11-22T15:38:19;2.28;;;0.30;;
30583;SDS011;17357;59.404;18.414;2022-11-22T15:40:47;1.13;;;0.32;;
30583;SDS011;17357;59.404;18.414;2022-11-22T15:43:19;3.22;;;0.30;;
30583;SDS011;17357;59.404;18.414;2022-11-22T15:45:46;1.10;;;0.30;;
30583;SDS011;17357;59.404;18.414;2022-11-22T15:48:13;1.10;;;0.40;;
30583;SDS011;17357;59.404;18.414;2022-11-22T15:53:30;1.48;;;0.30;;
30583;SDS011;17357;59.404;18.414;2022-11-22T15:55:58;0.80;;;0.52;;
30583;SDS011;17357;59.404;18.414;2022-11-22T15:58:25;1.08;;;0.30;;
30583;SDS011;17357;59.404;18.414;2022-11-22T16:00:56;1.48;;;0.50;;
30583;SDS011;17357;59.404;18.414;2022-11-22T16:03:36;0.98;;;0.32;;
30583;SDS011;17357;59.404;18.414;2022-11-22T16:06:03;0.52;;;0.50;;
30583;SDS011;17357;59.404;18.414;2022-11-22T16:08:34;4.72;;;0.90;;
30583;SDS011;17357;59.404;18.414;2022-11-22T16:11:00;0.82;;;0.32;;
30583;SDS011;17357;59.404;18.414;2022-11-22T16:13:27;0.57;;;0.30;;
30583;SDS011;17357;59.404;18.414;2022-11-22T16:16:04;1.55;;;0.50;;
30583;SDS011;17357;59.404;18.414;2022-11-22T16:18:30;0.43;;;0.30;;
30583;SDS011;17357;59.404;18.414;2022-11-22T16:20:59;1.55;;;0.40;;
30583;SDS011;17357;59.404;18.414;2022-11-22T16:23:35;2.13;;;0.30;;
30583;SDS011;17357;59.404;18.414;2022-11-22T16:28:46;1.13;;;0.43;;
30583;SDS011;17357;59.404;18.414;2022-11-22T16:33:54;1.65;;;0.50;;
30583;SDS011;17357;59.404;18.414;2022-11-22T16:36:22;1.10;;;0.63;;
30583;SDS011;17357;59.404;18.414;2022-11-22T16:38:49;2.17;;;0.50;;
30583;SDS011;17357;59.404;18.414;2022-11-22T16:43:48;2.00;;;0.47;;
30583;SDS011;17357;59.404;18.414;2022-11-22T16:46:17;0.40;;;0.40;;
30583;SDS011;17357;59.404;18.414;2022-11-22T16:48:42;0.90;;;0.20;;
30583;SDS011;17357;59.404;18.414;2022-11-22T16:53:43;0.60;;;0.28;;
30583;SDS011;17357;59.404;18.414;2022-11-22T16:56:14;1.58;;;0.45;;
30583;SDS011;17357;59.404;18.414;2022-11-22T16:58:40;1.13;;;0.60;;